createdAt,value
2023-02-11T00:01:07.946Z,33.72
2023-02-11T00:03:34.828Z,36.04
2023-02-11T00:06:01.637Z,38.55
2023-02-11T00:08:28.414Z,40.84
2023-02-11T00:10:55.219Z,37.53
2023-02-11T00:13:21.966Z,36.11
2023-02-11T00:15:49.162Z,35.35
2023-02-11T00:18:16.155Z,35.03
2023-02-11T00:20:42.903Z,35.04
2023-02-11T00:23:09.649Z,34.49
2023-02-11T00:25:37.243Z,34.38
2023-02-11T00:28:04.052Z,34.37
2023-02-11T00:30:30.904Z,34.33
2023-02-11T00:32:57.689Z,34.06
2023-02-11T00:35:24.424Z,34.08
2023-02-11T00:37:51.184Z,33.81
2023-02-11T00:40:17.971Z,34.24
2023-02-11T00:42:44.701Z,33.77
2023-02-11T00:45:11.485Z,35.26
2023-02-11T00:47:38.234Z,37.83
2023-02-11T00:50:05.199Z,39.41
2023-02-11T00:52:31.945Z,38.80
2023-02-11T00:54:58.678Z,37.02
2023-02-11T00:57:25.412Z,35.76
2023-02-11T00:59:52.156Z,35.31
2023-02-11T01:02:18.923Z,35.26
2023-02-11T01:04:45.655Z,34.74
2023-02-11T01:07:12.413Z,34.39
2023-02-11T01:09:39.194Z,34.51
2023-02-11T01:12:05.958Z,34.31
2023-02-11T01:14:32.865Z,34.28
2023-02-11T01:16:59.621Z,34.07
2023-02-11T01:19:26.425Z,34.09
2023-02-11T01:21:53.192Z,33.89
2023-02-11T01:24:19.914Z,33.81
2023-02-11T01:26:46.694Z,33.86
2023-02-11T01:29:13.438Z,33.70
2023-02-11T01:31:40.293Z,37.15
2023-02-11T01:34:07.085Z,38.33
2023-02-11T01:36:33.856Z,40.43
2023-02-11T01:39:00.598Z,37.54
2023-02-11T01:41:27.352Z,36.35
2023-02-11T01:43:54.131Z,35.54
2023-02-11T01:46:20.931Z,35.38
2023-02-11T01:48:47.734Z,34.84
2023-02-11T01:51:14.610Z,34.53
2023-02-11T01:54:00.245Z,34.43
2023-02-11T01:56:45.506Z,34.12
2023-02-11T01:59:12.258Z,34.09
2023-02-11T02:01:39.014Z,33.95
2023-02-11T02:04:05.827Z,34.12
2023-02-11T02:06:32.574Z,34.07
2023-02-11T02:08:59.311Z,33.87
2023-02-11T02:11:26.250Z,33.80
2023-02-11T02:13:53.024Z,33.84
2023-02-11T02:16:19.807Z,33.75
2023-02-11T02:18:48.595Z,35.35
2023-02-11T02:21:15.356Z,37.80
2023-02-11T02:23:42.337Z,40.18
2023-02-11T02:26:09.089Z,38.75
2023-02-11T02:28:36.027Z,36.62
2023-02-11T02:31:02.810Z,35.79
2023-02-11T02:33:29.731Z,35.08
2023-02-11T02:35:56.464Z,34.98
2023-02-11T02:38:23.201Z,34.91
2023-02-11T02:40:49.961Z,34.35
2023-02-11T02:43:16.708Z,34.47
2023-02-11T02:45:43.479Z,34.36
2023-02-11T02:48:10.241Z,34.00
2023-02-11T02:50:36.970Z,33.90
2023-02-11T02:53:03.704Z,33.90
2023-02-11T02:55:30.463Z,33.63
2023-02-11T02:57:57.320Z,33.96
2023-02-11T03:00:24.056Z,33.71
2023-02-11T03:02:50.873Z,33.68
2023-02-11T03:05:17.595Z,33.72
2023-02-11T03:07:44.381Z,35.78
2023-02-11T03:10:11.147Z,38.62
2023-02-11T03:12:37.889Z,40.63
2023-02-11T03:15:04.628Z,37.48
2023-02-11T03:17:31.378Z,36.20
2023-02-11T03:19:58.112Z,35.37
2023-02-11T03:22:24.834Z,34.97
2023-02-11T03:24:51.589Z,34.90
2023-02-11T03:27:18.321Z,34.62
2023-02-11T03:29:45.150Z,34.57
2023-02-11T03:32:15.946Z,34.31
2023-02-11T03:34:42.858Z,34.12
2023-02-11T03:37:09.622Z,34.02
2023-02-11T03:39:36.384Z,34.02
2023-02-11T03:42:03.107Z,33.70
2023-02-11T03:44:30.680Z,33.74
2023-02-11T03:46:57.450Z,33.59
2023-02-11T03:49:24.213Z,33.73
2023-02-11T03:51:50.943Z,33.66
2023-02-11T03:54:17.691Z,36.79
2023-02-11T03:56:45.811Z,37.89
2023-02-11T03:59:12.572Z,39.97
2023-02-11T04:01:39.333Z,37.29
2023-02-11T04:04:06.073Z,36.30
2023-02-11T04:06:32.808Z,35.31
2023-02-11T04:08:59.575Z,35.11
2023-02-11T04:11:26.298Z,34.52
2023-02-11T04:13:53.048Z,34.25
2023-02-11T04:16:19.822Z,34.33
2023-02-11T04:18:46.596Z,34.34
2023-02-11T04:21:13.390Z,34.16
2023-02-11T04:23:40.143Z,34.11
2023-02-11T04:26:06.874Z,33.93
2023-02-11T04:28:34.781Z,33.96
2023-02-11T04:31:01.657Z,34.01
2023-02-11T04:33:28.514Z,33.93
2023-02-11T04:35:55.245Z,33.61
2023-02-11T04:38:24.131Z,35.50
2023-02-11T04:40:50.875Z,37.87
2023-02-11T04:43:17.632Z,40.00
2023-02-11T04:45:44.408Z,38.14
2023-02-11T04:48:11.164Z,36.26
2023-02-11T04:50:37.919Z,35.36
2023-02-11T04:53:04.670Z,35.25
2023-02-11T04:55:31.422Z,34.68
2023-02-11T04:57:58.162Z,34.65
2023-02-11T05:00:24.915Z,34.71
2023-02-11T05:02:51.710Z,34.50
2023-02-11T05:05:18.431Z,33.95
2023-02-11T05:07:45.274Z,33.85
2023-02-11T05:10:12.025Z,33.74
2023-02-11T05:12:38.790Z,33.80
2023-02-11T05:15:05.554Z,33.55
2023-02-11T05:17:32.288Z,33.69
2023-02-11T05:19:59.021Z,33.74
2023-02-11T05:22:25.789Z,33.81
2023-02-11T05:24:52.537Z,37.04
2023-02-11T05:27:19.354Z,38.49
2023-02-11T05:29:46.156Z,40.67
2023-02-11T05:32:12.894Z,37.37
2023-02-11T05:34:39.635Z,36.13
2023-02-11T05:37:06.432Z,35.58
2023-02-11T05:39:33.309Z,34.90
2023-02-11T05:42:00.038Z,34.56
2023-02-11T05:44:27.897Z,34.37
2023-02-11T05:46:54.687Z,34.22
2023-02-11T05:49:21.425Z,34.26
2023-02-11T05:51:48.197Z,33.67
2023-02-11T05:54:14.989Z,33.71
2023-02-11T05:56:43.790Z,33.58
2023-02-11T05:59:11.503Z,34.04
2023-02-11T06:01:38.239Z,33.66
2023-02-11T06:04:04.965Z,33.49
2023-02-11T06:06:31.728Z,33.53
2023-02-11T06:08:58.461Z,33.41
2023-02-11T06:11:25.276Z,33.39
2023-02-11T06:13:52.034Z,36.78
2023-02-11T06:16:18.819Z,38.34
2023-02-11T06:18:45.591Z,40.27
2023-02-11T06:21:12.412Z,36.81
2023-02-11T06:23:39.264Z,35.98
2023-02-11T06:26:06.023Z,35.29
2023-02-11T06:28:32.900Z,34.81
2023-02-11T06:30:59.852Z,34.65
2023-02-11T06:33:26.658Z,34.38
2023-02-11T06:35:53.449Z,34.05
2023-02-11T06:38:20.201Z,34.14
2023-02-11T06:40:46.961Z,33.96
2023-02-11T06:43:13.758Z,33.96
2023-02-11T06:45:40.515Z,33.67
2023-02-11T06:48:07.384Z,33.70
2023-02-11T06:50:34.171Z,33.55
2023-02-11T06:53:00.920Z,33.38
2023-02-11T06:55:27.711Z,33.55
2023-02-11T06:57:54.448Z,33.72
2023-02-11T07:00:21.204Z,37.48
2023-02-11T07:02:48.063Z,37.94
2023-02-11T07:05:14.875Z,39.35
2023-02-11T07:07:41.612Z,36.90
2023-02-11T07:10:08.373Z,35.64
2023-02-11T07:12:35.128Z,35.19
2023-02-11T07:15:02.141Z,35.07
2023-02-11T07:17:28.875Z,34.52
2023-02-11T07:19:55.848Z,34.39
2023-02-11T07:22:22.589Z,34.08
2023-02-11T07:24:49.307Z,34.15
2023-02-11T07:27:16.108Z,33.94
2023-02-11T07:29:42.875Z,33.88
2023-02-11T07:32:09.712Z,33.83
2023-02-11T07:34:36.568Z,33.48
2023-02-11T07:37:03.366Z,33.52
2023-02-11T07:39:30.090Z,33.73
2023-02-11T07:41:56.886Z,33.47
2023-02-11T07:44:23.649Z,33.55
2023-02-11T07:46:50.580Z,33.37
2023-02-11T07:49:17.434Z,37.01
2023-02-11T07:51:44.199Z,38.54
2023-02-11T07:54:10.928Z,40.37
2023-02-11T07:56:37.690Z,36.58
2023-02-11T07:59:04.420Z,35.67
2023-02-11T08:01:31.188Z,35.05
2023-02-11T08:03:57.946Z,34.88
2023-02-11T08:06:24.768Z,34.53
2023-02-11T08:08:51.543Z,34.27
2023-02-11T08:11:18.291Z,34.03
2023-02-11T08:13:45.061Z,34.00
2023-02-11T08:16:11.895Z,34.11
2023-02-11T08:18:38.662Z,33.72
2023-02-11T08:21:05.726Z,33.79
2023-02-11T08:23:32.493Z,33.89
2023-02-11T08:25:59.242Z,33.88
2023-02-11T08:28:26.006Z,33.70
2023-02-11T08:30:53.144Z,33.58
2023-02-11T08:33:20.040Z,37.58
2023-02-11T08:35:46.826Z,38.43
2023-02-11T08:38:13.559Z,39.43
2023-02-11T08:40:40.378Z,36.42
2023-02-11T08:43:08.230Z,35.89
2023-02-11T08:45:35.063Z,35.27
2023-02-11T08:48:01.894Z,34.66
2023-02-11T08:50:28.644Z,34.63
2023-02-11T08:52:55.405Z,34.41
2023-02-11T08:55:22.186Z,34.21
2023-02-11T08:57:48.921Z,33.98
2023-02-11T09:00:16.337Z,33.86
2023-02-11T09:02:43.138Z,33.78
2023-02-11T09:05:09.887Z,33.82
2023-02-11T09:07:36.652Z,33.62
2023-02-11T09:10:03.433Z,33.76
2023-02-11T09:12:30.175Z,33.53
2023-02-11T09:14:57.043Z,33.57
2023-02-11T09:17:23.948Z,36.25
2023-02-11T09:19:50.690Z,38.33
2023-02-11T09:22:17.422Z,40.19
2023-02-11T09:24:44.201Z,37.66
2023-02-11T09:27:10.934Z,36.20
2023-02-11T09:29:37.751Z,35.64
2023-02-11T09:32:04.833Z,35.07
2023-02-11T09:34:32.454Z,34.80
2023-02-11T09:36:59.283Z,34.51
2023-02-11T09:39:26.681Z,34.41
2023-02-11T09:41:53.435Z,34.36
2023-02-11T09:44:20.173Z,34.37
2023-02-11T09:46:46.918Z,34.05
2023-02-11T09:49:13.705Z,33.83
2023-02-11T09:51:40.592Z,33.60
2023-02-11T09:54:07.335Z,33.86
2023-02-11T09:56:34.083Z,33.88
2023-02-11T09:59:00.806Z,33.65
2023-02-11T10:01:27.609Z,36.01
2023-02-11T10:03:54.676Z,38.07
2023-02-11T10:06:21.521Z,39.64
2023-02-11T10:08:48.280Z,37.78
2023-02-11T10:11:29.600Z,36.29
2023-02-11T10:13:57.908Z,35.07
2023-02-11T10:16:24.653Z,34.98
2023-02-11T10:18:51.522Z,34.81
2023-02-11T10:21:18.300Z,34.52
2023-02-11T10:23:45.099Z,34.26
2023-02-11T10:26:11.896Z,34.13
2023-02-11T10:28:39.342Z,34.28
2023-02-11T10:31:06.267Z,34.24
2023-02-11T10:33:33.101Z,33.83
2023-02-11T10:35:59.865Z,33.82
2023-02-11T10:38:27.613Z,33.73
2023-02-11T10:40:54.347Z,33.70
2023-02-11T10:43:21.090Z,33.96
2023-02-11T10:45:47.836Z,37.24
2023-02-11T10:48:16.456Z,38.00
2023-02-11T10:50:43.299Z,39.59
2023-02-11T10:53:10.030Z,37.38
2023-02-11T10:55:36.791Z,36.14
2023-02-11T10:58:03.746Z,35.49
2023-02-11T11:00:30.672Z,34.79
2023-02-11T11:02:57.511Z,34.50
2023-02-11T11:05:24.297Z,34.54
2023-02-11T11:07:51.043Z,34.35
2023-02-11T11:10:17.795Z,33.90
2023-02-11T11:12:44.555Z,34.26
2023-02-11T11:15:11.293Z,34.00
2023-02-11T11:17:38.026Z,33.99
2023-02-11T11:20:04.833Z,33.63
2023-02-11T11:22:31.608Z,33.73
2023-02-11T11:25:01.394Z,33.85
2023-02-11T11:27:30.067Z,33.70
2023-02-11T11:29:56.836Z,36.67
2023-02-11T11:32:23.578Z,37.88
2023-02-11T11:34:50.586Z,39.94
2023-02-11T11:37:17.317Z,37.35
2023-02-11T11:39:44.071Z,36.35
2023-02-11T11:42:11.315Z,35.38
2023-02-11T11:44:38.101Z,35.16
2023-02-11T11:47:04.864Z,34.73
2023-02-11T11:49:31.630Z,34.72
2023-02-11T11:51:58.366Z,34.70
2023-02-11T11:54:25.102Z,34.33
2023-02-11T11:56:51.900Z,34.01
2023-02-11T11:59:18.683Z,34.21
2023-02-11T12:01:45.445Z,33.75
2023-02-11T12:04:12.209Z,34.00
2023-02-11T12:06:39.036Z,33.53
2023-02-11T12:09:05.881Z,33.90
2023-02-11T12:11:32.647Z,33.50
2023-02-11T12:13:59.390Z,35.90
2023-02-11T12:16:26.148Z,37.63
2023-02-11T12:18:53.013Z,39.89
2023-02-11T12:21:19.960Z,37.67
2023-02-11T12:23:46.821Z,36.47
2023-02-11T12:26:13.809Z,35.57
2023-02-11T12:28:40.911Z,35.20
2023-02-11T12:31:07.827Z,35.16
2023-02-11T12:33:34.674Z,34.64
2023-02-11T12:36:01.409Z,34.36
2023-02-11T12:38:28.141Z,34.20
2023-02-11T12:40:54.887Z,34.11
2023-02-11T12:43:21.632Z,34.19
2023-02-11T12:45:48.453Z,34.18
2023-02-11T12:48:15.220Z,34.17
2023-02-11T12:50:42.040Z,33.83
2023-02-11T12:53:08.766Z,34.00
2023-02-11T12:55:38.334Z,34.28
2023-02-11T12:58:06.164Z,37.49
2023-02-11T13:00:32.887Z,37.83
2023-02-11T13:02:59.669Z,39.00
2023-02-11T13:05:26.467Z,37.42
2023-02-11T13:07:53.270Z,36.04
2023-02-11T13:10:20.021Z,35.42
2023-02-11T13:13:05.359Z,34.88
2023-02-11T13:15:32.146Z,34.57
2023-02-11T13:17:58.870Z,34.54
2023-02-11T13:20:25.598Z,34.39
2023-02-11T13:22:52.352Z,34.14
2023-02-11T13:25:19.092Z,34.22
2023-02-11T13:27:45.818Z,33.87
2023-02-11T13:30:13.184Z,34.02
2023-02-11T13:32:39.930Z,34.14
2023-02-11T13:35:06.674Z,33.83
2023-02-11T13:37:33.890Z,35.76
2023-02-11T13:40:00.672Z,38.05
2023-02-11T13:42:27.434Z,39.81
2023-02-11T13:44:54.201Z,38.80
2023-02-11T13:47:20.935Z,36.77
2023-02-11T13:49:47.684Z,35.58
2023-02-11T13:52:14.467Z,35.45
2023-02-11T13:54:42.396Z,35.25
2023-02-11T13:57:09.571Z,35.04
2023-02-11T13:59:36.332Z,34.56
2023-02-11T14:02:21.741Z,34.75
2023-02-11T14:05:07.081Z,34.33
2023-02-11T14:07:52.288Z,34.37
2023-02-11T14:10:19.187Z,34.12
2023-02-11T14:12:45.918Z,34.22
2023-02-11T14:15:12.656Z,33.96
2023-02-11T14:17:39.421Z,33.93
2023-02-11T14:20:06.215Z,33.82
2023-02-11T14:22:33.002Z,36.15
2023-02-11T14:24:59.911Z,37.34
2023-02-11T14:27:26.649Z,38.98
2023-02-11T14:29:53.378Z,38.64
2023-02-11T14:32:20.115Z,36.72
2023-02-11T14:34:46.852Z,36.09
2023-02-11T14:37:13.588Z,35.48
2023-02-11T14:39:40.356Z,35.08
2023-02-11T14:42:07.151Z,34.80
2023-02-11T14:44:33.962Z,34.62
2023-02-11T14:47:00.732Z,34.54
2023-02-11T14:49:27.497Z,34.28
2023-02-11T14:51:54.222Z,34.39
2023-02-11T14:54:22.626Z,34.15
2023-02-11T14:56:49.398Z,34.28
2023-02-11T14:59:16.131Z,33.91
2023-02-11T15:01:43.047Z,34.18
2023-02-11T15:04:09.967Z,33.88
2023-02-11T15:06:36.708Z,36.04
2023-02-11T15:09:03.555Z,36.54
2023-02-11T15:11:30.320Z,38.34
2023-02-11T15:13:57.049Z,38.17
2023-02-11T15:16:23.857Z,37.77
2023-02-11T15:18:51.548Z,36.51
2023-02-11T15:21:18.287Z,35.57
2023-02-11T15:23:45.031Z,35.14
2023-02-11T15:26:11.770Z,34.78
2023-02-11T15:28:38.588Z,34.39
2023-02-11T15:31:05.545Z,34.63
2023-02-11T15:33:32.568Z,34.45
2023-02-11T15:35:59.371Z,34.41
2023-02-11T15:38:26.221Z,34.27
2023-02-11T15:40:53.223Z,34.23
2023-02-11T15:43:20.190Z,34.41
2023-02-11T15:45:48.050Z,34.00
2023-02-11T15:48:14.798Z,34.03
2023-02-11T15:50:41.587Z,35.92
2023-02-11T15:53:08.497Z,36.53
2023-02-11T15:55:35.240Z,38.27
2023-02-11T15:58:01.972Z,38.48
2023-02-11T16:00:28.725Z,36.85
2023-02-11T16:02:55.506Z,35.83
2023-02-11T16:05:22.247Z,35.59
2023-02-11T16:07:52.276Z,34.91
2023-02-11T16:10:19.093Z,34.70
2023-02-11T16:12:45.862Z,34.69
2023-02-11T16:15:12.617Z,34.46
2023-02-11T16:17:39.380Z,34.30
2023-02-11T16:20:06.464Z,34.45
2023-02-11T16:22:37.962Z,34.26
2023-02-11T16:25:05.634Z,34.27
2023-02-11T16:27:32.362Z,34.25
2023-02-11T16:29:59.138Z,33.93
2023-02-11T16:32:25.962Z,35.51
2023-02-11T16:34:52.708Z,35.91
2023-02-11T16:37:19.467Z,37.25
2023-02-11T16:39:46.255Z,38.17
2023-02-11T16:42:13.020Z,37.41
2023-02-11T16:44:39.858Z,36.25
2023-02-11T16:47:06.703Z,35.53
2023-02-11T16:49:33.658Z,35.14
2023-02-11T16:52:03.251Z,34.79
2023-02-11T16:54:30.035Z,34.66
2023-02-11T16:56:56.795Z,34.45
2023-02-11T16:59:23.532Z,34.49
2023-02-11T17:01:50.269Z,34.54
2023-02-11T17:04:17.152Z,33.90
2023-02-11T17:06:44.118Z,33.92
2023-02-11T17:09:10.867Z,34.01
2023-02-11T17:11:37.611Z,34.05
2023-02-11T17:14:04.369Z,34.78
2023-02-11T17:16:32.370Z,36.46
2023-02-11T17:18:59.193Z,37.06
2023-02-11T17:21:29.482Z,38.71
2023-02-11T17:23:56.684Z,37.42
2023-02-11T17:26:23.428Z,36.43
2023-02-11T17:28:50.214Z,35.57
2023-02-11T17:31:17.121Z,35.26
2023-02-11T17:33:43.944Z,35.07
2023-02-11T17:36:10.697Z,34.92
2023-02-11T17:38:37.495Z,34.80
2023-02-11T17:41:04.699Z,34.49
2023-02-11T17:43:31.443Z,34.51
2023-02-11T17:45:58.259Z,34.14
2023-02-11T17:48:25.064Z,34.17
2023-02-11T17:50:51.936Z,34.30
2023-02-11T17:53:18.804Z,33.95
2023-02-11T17:55:45.675Z,36.08
2023-02-11T17:58:12.471Z,36.26
2023-02-11T18:00:39.302Z,38.05
2023-02-11T18:03:06.054Z,38.25
2023-02-11T18:05:32.800Z,36.79
2023-02-11T18:07:59.522Z,36.22
2023-02-11T18:10:26.265Z,35.16
2023-02-11T18:12:53.021Z,35.13
2023-02-11T18:15:19.801Z,35.00
2023-02-11T18:17:46.528Z,34.57
2023-02-11T18:20:13.337Z,34.86
2023-02-11T18:22:40.822Z,34.24
2023-02-11T18:25:07.560Z,34.23
2023-02-11T18:27:34.344Z,34.10
2023-02-11T18:30:01.109Z,34.18
2023-02-11T18:32:27.891Z,34.07
2023-02-11T18:34:54.651Z,34.12
2023-02-11T18:37:21.490Z,36.33
2023-02-11T18:39:48.314Z,37.31
2023-02-11T18:42:15.070Z,39.25
2023-02-11T18:44:41.806Z,38.49
2023-02-11T18:47:08.572Z,36.88
2023-02-11T18:49:36.109Z,35.89
2023-02-11T18:52:02.842Z,35.21
2023-02-11T18:54:29.588Z,35.00
2023-02-11T18:56:56.338Z,34.92
2023-02-11T18:59:23.066Z,34.55
2023-02-11T19:01:50.963Z,34.47
2023-02-11T19:04:19.803Z,34.46
2023-02-11T19:06:46.656Z,34.26
2023-02-11T19:09:13.383Z,34.28
2023-02-11T19:11:53.991Z,33.98
2023-02-11T19:14:20.826Z,34.19
2023-02-11T19:16:47.702Z,34.17
2023-02-11T19:19:14.500Z,34.22
2023-02-11T19:21:41.244Z,37.51
2023-02-11T19:24:08.067Z,38.10
2023-02-11T19:26:34.896Z,39.81
2023-02-11T19:29:01.906Z,37.82
2023-02-11T19:31:32.004Z,36.17
2023-02-11T19:33:58.996Z,35.59
2023-02-11T19:36:25.902Z,35.30
2023-02-11T19:38:52.703Z,35.26
2023-02-11T19:41:22.982Z,34.81
2023-02-11T19:43:52.892Z,34.82
2023-02-11T19:46:20.476Z,34.67
2023-02-11T19:48:47.357Z,34.53
2023-02-11T19:51:14.098Z,34.44
2023-02-11T19:53:40.950Z,34.16
2023-02-11T19:56:07.839Z,34.21
2023-02-11T19:58:34.640Z,34.02
2023-02-11T20:01:01.419Z,34.00
2023-02-11T20:03:28.195Z,36.26
2023-02-11T20:05:54.944Z,36.94
2023-02-11T20:08:21.700Z,38.51
2023-02-11T20:10:48.460Z,38.82
2023-02-11T20:13:15.470Z,37.77
2023-02-11T20:15:42.394Z,36.55
2023-02-11T20:18:09.152Z,35.96
2023-02-11T20:20:37.244Z,35.29
2023-02-11T20:23:03.981Z,35.15
2023-02-11T20:25:30.757Z,34.92
2023-02-11T20:27:57.604Z,34.78
2023-02-11T20:30:24.375Z,34.46
2023-02-11T20:32:51.183Z,34.59
2023-02-11T20:35:18.011Z,34.68
2023-02-11T20:37:44.808Z,34.54
2023-02-11T20:40:11.583Z,34.15
2023-02-11T20:42:38.348Z,34.34
2023-02-11T20:45:05.114Z,34.30
2023-02-11T20:47:32.151Z,37.52
2023-02-11T20:49:58.918Z,38.55
2023-02-11T20:52:25.734Z,39.82
2023-02-11T20:54:52.516Z,37.71
2023-02-11T20:57:19.263Z,36.55
2023-02-11T20:59:46.067Z,35.94
2023-02-11T21:02:13.323Z,35.41
2023-02-11T21:04:40.193Z,35.37
2023-02-11T21:07:06.951Z,35.10
2023-02-11T21:09:33.791Z,34.87
2023-02-11T21:12:00.612Z,34.89
2023-02-11T21:14:27.580Z,34.65
2023-02-11T21:16:54.331Z,34.25
2023-02-11T21:19:21.176Z,34.58
2023-02-11T21:21:48.219Z,34.19
2023-02-11T21:24:15.153Z,34.41
2023-02-11T21:26:41.953Z,34.09
2023-02-11T21:29:08.717Z,34.11
2023-02-11T21:31:35.726Z,37.11
2023-02-11T21:34:02.762Z,37.40
2023-02-11T21:36:29.575Z,39.13
2023-02-11T21:38:56.389Z,38.73
2023-02-11T21:41:24.569Z,36.98
2023-02-11T21:43:51.328Z,35.88
2023-02-11T21:46:18.143Z,35.62
2023-02-11T21:48:44.893Z,35.18
2023-02-11T21:51:11.620Z,35.06
2023-02-11T21:53:38.372Z,34.88
2023-02-11T21:56:05.135Z,34.68
2023-02-11T21:58:31.895Z,34.84
2023-02-11T22:00:58.666Z,34.47
2023-02-11T22:03:25.478Z,34.37
2023-02-11T22:05:52.301Z,34.29
2023-02-11T22:08:20.236Z,34.04
2023-02-11T22:10:47.134Z,34.13
2023-02-11T22:13:13.880Z,36.58
2023-02-11T22:15:40.642Z,37.95
2023-02-11T22:18:07.600Z,39.95
2023-02-11T22:20:34.440Z,38.86
2023-02-11T22:23:01.187Z,37.14
2023-02-11T22:25:27.935Z,36.37
2023-02-11T22:27:54.675Z,35.85
2023-02-11T22:30:21.486Z,35.21
2023-02-11T22:32:48.237Z,35.09
2023-02-11T22:35:15.017Z,35.09
2023-02-11T22:37:41.788Z,35.13
2023-02-11T22:40:08.537Z,34.62
2023-02-11T22:42:35.279Z,34.52
2023-02-11T22:45:02.979Z,34.45
2023-02-11T22:47:29.719Z,34.64
2023-02-11T22:49:56.476Z,34.36
2023-02-11T22:52:23.621Z,34.29
2023-02-11T22:54:50.354Z,34.56
2023-02-11T22:57:17.082Z,36.27
2023-02-11T22:59:43.837Z,37.53
2023-02-11T23:02:10.713Z,39.27
2023-02-11T23:04:37.611Z,39.10
2023-02-11T23:07:04.524Z,37.02
2023-02-11T23:09:31.268Z,36.19
2023-02-11T23:11:58.069Z,35.72
2023-02-11T23:14:25.032Z,35.65
2023-02-11T23:16:51.830Z,35.00
2023-02-11T23:19:19.832Z,35.33
2023-02-11T23:21:47.574Z,34.97
2023-02-11T23:24:14.324Z,34.90
2023-02-11T23:26:41.082Z,34.64
2023-02-11T23:29:07.939Z,34.53
2023-02-11T23:31:34.918Z,34.57
2023-02-11T23:34:01.773Z,34.36
2023-02-11T23:36:28.551Z,34.22
2023-02-11T23:38:55.298Z,34.20
2023-02-11T23:41:22.046Z,36.37
2023-02-11T23:43:48.826Z,38.18
2023-02-11T23:46:15.615Z,39.57
2023-02-11T23:48:42.403Z,38.99
2023-02-11T23:51:09.728Z,37.21
2023-02-11T23:53:36.491Z,36.20
2023-02-11T23:56:03.219Z,35.68
2023-02-11T23:58:29.970Z,35.35
